Time;durP1;ratioP1;P1;durP2;ratioP2;P2;SDS_P1;SDS_P2;PMS_P1;PMS_P2;Temp;Humidity;BMP_temperature;BMP_pressure;BME280_temperature;BME280_humidity;BME280_pressure;Samples;Min_cycle;Max_cycle;Signal;HPM_P1;HPM_P2
2022/04/15 00:00:36;;;;;;;8.03;7.23;;;16.90;99.90;;;;;;5008377;28;20388;-81
2022/04/15 00:03:02;;;;;;;7.15;6.50;;;16.90;99.90;;;;;;5011374;28;20385;-80
2022/04/15 00:05:37;;;;;;;7.20;6.57;;;16.80;99.90;;;;;;5007689;28;20385;-81
2022/04/15 00:08:09;;;;;;;8.50;6.30;;;16.90;99.90;;;;;;5015030;28;20393;-80
2022/04/15 00:10:37;;;;;;;6.53;5.80;;;16.90;99.90;;;;;;5014546;28;20393;-80
2022/04/15 00:13:06;;;;;;;6.60;5.80;;;16.80;99.90;;;;;;5014132;28;20389;-81
2022/04/15 00:15:33;;;;;;;7.90;5.88;;;16.70;99.90;;;;;;5014450;28;20384;-80
2022/04/15 00:17:59;;;;;;;7.22;6.63;;;16.70;99.90;;;;;;5010938;28;20399;-80
2022/04/15 00:20:26;;;;;;;7.80;7.00;;;16.60;99.90;;;;;;5014402;28;20451;-81
2022/04/15 00:22:53;;;;;;;8.38;7.00;;;16.60;99.90;;;;;;5013683;28;20408;-80
2022/04/15 00:25:19;;;;;;;7.50;6.90;;;16.60;99.90;;;;;;5008266;28;20379;-80
2022/04/15 00:27:45;;;;;;;7.82;6.53;;;16.80;99.90;;;;;;4996388;28;20411;-80
2022/04/15 00:30:12;;;;;;;7.07;6.47;;;16.90;99.90;;;;;;5014111;28;20404;-81
2022/04/15 00:32:38;;;;;;;6.80;6.20;;;17.00;99.90;;;;;;5014000;28;20749;-80
2022/04/15 00:35:04;;;;;;;7.33;6.60;;;17.00;99.90;;;;;;5013959;28;20404;-81
2022/04/15 00:37:31;;;;;;;7.30;6.60;;;17.00;99.90;;;;;;5014027;28;20393;-81
2022/04/15 00:39:57;;;;;;;7.95;6.45;;;16.90;99.90;;;;;;5013942;28;20401;-81
2022/04/15 00:42:23;;;;;;;7.78;6.60;;;16.70;99.90;;;;;;5014212;28;20822;-81
2022/04/15 00:44:54;;;;;;;7.43;6.70;;;16.50;99.90;;;;;;4996324;28;20404;-78
2022/04/15 00:47:57;;;;;;;7.63;7.03;;;16.50;99.90;;;;;;5014089;28;20416;-80
2022/04/15 00:50:26;;;;;;;7.60;6.80;;;16.60;99.90;;;;;;4996248;28;20399;-79
2022/04/15 00:52:55;;;;;;;7.80;7.00;;;16.80;99.90;;;;;;5013641;28;20430;-81
2022/04/15 00:55:22;;;;;;;7.20;6.60;;;16.80;99.90;;;;;;5013779;28;20408;-81
2022/04/15 00:58:00;;;;;;;7.28;6.60;;;16.80;99.90;;;;;;5013650;28;20388;-81
2022/04/15 01:00:29;;;;;;;8.70;7.68;;;16.70;99.90;;;;;;4999834;28;20378;-79
2022/04/15 01:03:00;;;;;;;9.20;7.75;;;16.50;99.90;;;;;;5013453;28;20389;-81
2022/04/15 01:05:27;;;;;;;8.38;7.50;;;16.60;99.90;;;;;;4995795;28;20800;-78
2022/04/15 01:08:00;;;;;;;7.40;6.80;;;16.60;99.90;;;;;;4996355;28;20866;-80
2022/04/15 01:10:27;;;;;;;7.93;7.13;;;16.70;99.90;;;;;;4997603;28;20387;-80
2022/04/15 01:12:56;;;;;;;7.20;6.50;;;16.70;99.90;;;;;;5013512;28;20862;-81
2022/04/15 01:15:25;;;;;;;8.03;7.23;;;16.50;99.90;;;;;;5012034;28;20435;-81
2022/04/15 01:17:50;;;;;;;9.00;7.40;;;16.60;99.90;;;;;;5000898;28;20877;-80
2022/04/15 01:20:17;;;;;;;7.60;6.80;;;16.50;99.90;;;;;;5013851;28;20439;-80
2022/04/15 01:22:44;;;;;;;8.10;7.30;;;16.50;99.90;;;;;;5013829;28;20381;-79
2022/04/15 01:25:14;;;;;;;7.22;6.53;;;16.30;99.90;;;;;;5010122;28;20811;-84
2022/04/15 01:27:45;;;;;;;7.60;6.38;;;16.30;99.90;;;;;;5011100;28;20825;-80
2022/04/15 01:30:19;;;;;;;7.35;6.75;;;16.30;99.90;;;;;;5007532;28;20387;-80
2022/04/15 01:32:46;;;;;;;7.43;6.72;;;16.30;99.90;;;;;;5004188;28;20390;-79
2022/04/15 01:35:15;;;;;;;8.33;7.50;;;16.40;99.90;;;;;;5012124;28;20832;-79
2022/04/15 01:37:42;;;;;;;8.13;7.32;;;16.40;99.90;;;;;;5012858;28;20431;-79
2022/04/15 01:40:09;;;;;;;7.80;7.00;;;16.40;99.90;;;;;;5012808;28;20450;-79
2022/04/15 01:42:36;;;;;;;7.72;7.03;;;16.40;99.90;;;;;;5012624;28;20456;-79
2022/04/15 01:45:03;;;;;;;8.93;7.03;;;16.30;99.90;;;;;;5012834;28;20750;-80
2022/04/15 01:47:29;;;;;;;7.93;7.13;;;16.30;99.90;;;;;;5012780;28;20393;-80
2022/04/15 01:49:55;;;;;;;8.23;6.78;;;16.30;99.90;;;;;;5013133;28;20395;-80
2022/04/15 01:52:21;;;;;;;7.43;6.78;;;16.30;99.90;;;;;;4985219;28;20746;-80
2022/04/15 01:54:47;;;;;;;7.07;6.38;;;16.30;99.90;;;;;;5012612;28;20448;-80
2022/04/15 01:57:13;;;;;;;6.57;5.97;;;16.20;99.90;;;;;;5012622;28;20403;-80
2022/04/15 01:59:40;;;;;;;6.57;5.82;;;16.20;99.90;;;;;;5012645;28;20393;-80
2022/04/15 02:02:06;;;;;;;6.25;5.68;;;16.20;99.90;;;;;;5008196;28;20902;-80
2022/04/15 02:04:32;;;;;;;6.73;5.63;;;16.20;99.90;;;;;;5012568;28;20389;-80
2022/04/15 02:06:59;;;;;;;6.00;5.40;;;16.40;99.90;;;;;;5012576;28;20798;-80
2022/04/15 02:09:24;;;;;;;6.18;5.53;;;16.40;99.90;;;;;;5009323;28;20409;-80
2022/04/15 02:11:50;;;;;;;5.87;5.30;;;16.40;99.90;;;;;;5001932;28;20425;-80
2022/04/15 02:14:19;;;;;;;6.78;5.50;;;16.40;99.90;;;;;;4995160;28;20418;-80
2022/04/15 02:16:46;;;;;;;5.80;5.20;;;16.30;99.90;;;;;;4989906;28;20860;-80
2022/04/15 02:19:12;;;;;;;5.68;5.18;;;16.30;99.90;;;;;;5007404;28;20395;-80
2022/04/15 02:21:37;;;;;;;5.47;4.97;;;16.20;99.90;;;;;;5010899;28;20385;-80
2022/04/15 02:24:03;;;;;;;5.30;4.80;;;16.20;99.90;;;;;;5012103;28;20396;-80
2022/04/15 02:26:29;;;;;;;5.60;5.10;;;16.10;99.90;;;;;;5003683;28;20857;-80
2022/04/15 02:28:55;;;;;;;5.55;5.05;;;16.10;99.90;;;;;;5011614;28;20455;-80
2022/04/15 02:31:20;;;;;;;5.80;5.10;;;16.10;99.90;;;;;;5012020;28;20419;-80
2022/04/15 02:33:46;;;;;;;6.10;5.47;;;16.10;99.90;;;;;;5012173;28;20508;-80
2022/04/15 02:36:12;;;;;;;5.60;5.10;;;16.10;99.90;;;;;;5012258;28;20556;-80
2022/04/15 02:38:37;;;;;;;5.63;5.10;;;16.10;99.90;;;;;;5012191;28;20798;-80
2022/04/15 02:41:04;;;;;;;5.97;5.37;;;15.90;99.90;;;;;;5012252;28;20385;-80
2022/04/15 02:43:31;;;;;;;6.40;5.25;;;15.90;99.90;;;;;;5008951;28;20449;-80
2022/04/15 02:46:01;;;;;;;6.73;5.10;;;15.90;99.90;;;;;;5002389;28;20781;-80
2022/04/15 02:48:28;;;;;;;6.25;5.40;;;15.90;99.90;;;;;;5016250;28;20863;-80
2022/04/15 02:50:54;;;;;;;5.60;5.05;;;15.80;99.90;;;;;;5008169;28;20443;-80
2022/04/15 02:53:20;;;;;;;6.20;5.00;;;15.70;99.90;;;;;;5010000;28;20421;-80
2022/04/15 02:55:46;;;;;;;6.20;5.33;;;15.80;99.90;;;;;;5016217;28;20452;-80
2022/04/15 02:58:11;;;;;;;5.87;5.13;;;15.80;99.90;;;;;;4998715;28;20388;-80
2022/04/15 03:00:37;;;;;;;6.03;5.37;;;15.80;99.90;;;;;;5016021;28;20865;-80
2022/04/15 03:03:03;;;;;;;6.85;5.30;;;15.90;99.90;;;;;;5015921;28;20467;-80
2022/04/15 03:05:30;;;;;;;5.35;4.85;;;15.80;99.90;;;;;;5015913;28;20403;-80
2022/04/15 03:07:55;;;;;;;6.10;4.90;;;15.80;99.90;;;;;;5015668;28;20387;-80
2022/04/15 03:10:21;;;;;;;6.22;4.68;;;15.80;99.90;;;;;;4997237;28;20394;-80
2022/04/15 03:12:47;;;;;;;5.68;4.93;;;15.80;99.90;;;;;;5015811;28;20381;-80
2022/04/15 03:15:13;;;;;;;5.35;4.82;;;15.70;99.90;;;;;;5015634;28;20777;-80
2022/04/15 03:17:39;;;;;;;6.55;4.82;;;15.50;99.90;;;;;;4999259;28;20492;-80
2022/04/15 03:20:06;;;;;;;5.93;4.90;;;15.60;99.90;;;;;;5001085;28;20391;-80
2022/04/15 03:22:40;;;;;;;5.32;4.82;;;15.60;99.90;;;;;;5011916;28;20424;-79
2022/04/15 03:25:07;;;;;;;5.70;5.20;;;15.50;99.90;;;;;;5010701;28;20399;-80
2022/04/15 03:27:33;;;;;;;6.23;5.03;;;15.40;99.90;;;;;;5003443;28;20425;-80
2022/04/15 03:29:59;;;;;;;7.10;4.72;;;15.40;99.90;;;;;;5015224;28;20432;-80
2022/04/15 03:32:25;;;;;;;5.43;4.72;;;15.30;99.90;;;;;;5015216;28;20416;-80
2022/04/15 03:34:55;;;;;;;6.10;4.72;;;15.10;99.90;;;;;;5015158;28;20789;-80
2022/04/15 03:37:20;;;;;;;5.82;4.75;;;15.20;99.90;;;;;;5006824;28;20389;-79
2022/04/15 03:39:46;;;;;;;5.95;4.68;;;15.20;99.90;;;;;;5013608;28;20861;-80
2022/04/15 03:42:11;;;;;;;5.20;4.70;;;15.30;99.90;;;;;;4997635;28;20404;-80
2022/04/15 03:44:37;;;;;;;5.27;4.77;;;15.30;99.90;;;;;;5015120;28;20397;-79
2022/04/15 03:47:04;;;;;;;5.00;4.50;;;15.20;99.90;;;;;;5015066;28;20422;-79
2022/04/15 03:49:30;;;;;;;5.47;4.70;;;15.10;99.90;;;;;;5015378;28;20400;-79
2022/04/15 03:51:55;;;;;;;4.70;4.30;;;15.00;99.90;;;;;;5015158;28;20906;-79
2022/04/15 03:54:21;;;;;;;4.77;4.37;;;15.00;99.90;;;;;;5014943;28;20844;-80
2022/04/15 03:56:47;;;;;;;5.15;4.32;;;15.10;99.90;;;;;;5015170;28;20776;-80
2022/04/15 03:59:13;;;;;;;4.93;4.10;;;15.20;99.90;;;;;;5013886;28;20785;-79
2022/04/15 04:01:39;;;;;;;5.07;3.80;;;15.00;99.90;;;;;;5010458;28;20471;-80
2022/04/15 04:04:05;;;;;;;5.17;4.20;;;15.20;99.90;;;;;;5014678;28;20468;-80
2022/04/15 04:06:31;;;;;;;4.60;4.10;;;15.10;99.90;;;;;;5014805;28;20385;-80
2022/04/15 04:08:56;;;;;;;5.55;3.90;;;15.10;99.90;;;;;;5014649;28;20480;-80
2022/04/15 04:11:22;;;;;;;5.88;4.07;;;15.00;99.90;;;;;;5014675;28;20400;-80
2022/04/15 04:13:48;;;;;;;4.88;4.47;;;15.10;99.90;;;;;;5014448;28;20405;-80
2022/04/15 04:16:14;;;;;;;4.95;4.45;;;15.20;99.90;;;;;;5014706;28;20385;-79
2022/04/15 04:18:40;;;;;;;6.57;4.33;;;15.30;99.90;;;;;;5014569;28;20384;-79
2022/04/15 04:21:07;;;;;;;4.53;4.03;;;15.30;99.90;;;;;;5002358;28;20416;-81
2022/04/15 04:23:33;;;;;;;4.53;4.13;;;15.10;99.90;;;;;;4993307;28;20910;-80
2022/04/15 04:25:59;;;;;;;5.60;4.40;;;15.20;99.90;;;;;;4995589;28;20410;-80
2022/04/15 04:28:24;;;;;;;4.70;4.30;;;15.10;99.90;;;;;;5003818;28;20443;-80
2022/04/15 04:30:50;;;;;;;4.97;4.15;;;15.00;99.90;;;;;;5012254;28;20399;-79
2022/04/15 04:33:16;;;;;;;4.13;3.73;;;15.00;99.90;;;;;;5012860;28;20377;-80
2022/04/15 04:35:41;;;;;;;4.60;4.00;;;15.00;99.90;;;;;;5014028;28;20427;-80
2022/04/15 04:38:07;;;;;;;4.63;4.23;;;15.10;99.90;;;;;;5013244;28;20377;-80
2022/04/15 04:40:34;;;;;;;4.37;3.90;;;15.00;99.90;;;;;;5014464;28;20381;-81
2022/04/15 04:43:00;;;;;;;6.00;4.00;;;15.10;99.90;;;;;;5014141;28;20751;-80
2022/04/15 04:45:26;;;;;;;5.32;4.00;;;15.10;99.90;;;;;;5014438;28;20467;-80
2022/04/15 04:47:53;;;;;;;5.18;4.18;;;14.90;99.90;;;;;;5014450;28;20424;-80
2022/04/15 04:50:19;;;;;;;5.88;4.13;;;14.90;99.90;;;;;;5014510;28;20400;-80
2022/04/15 04:52:46;;;;;;;4.50;3.90;;;15.00;99.90;;;;;;5015093;28;20400;-80
2022/04/15 04:55:13;;;;;;;4.63;3.60;;;15.00;99.90;;;;;;5013989;28;20466;-80
2022/04/15 04:57:42;;;;;;;4.88;3.85;;;15.00;99.90;;;;;;5014293;28;20476;-80
2022/04/15 05:00:09;;;;;;;5.68;4.45;;;14.90;99.90;;;;;;5013839;28;20393;-80
2022/04/15 05:02:35;;;;;;;4.97;4.10;;;14.90;99.90;;;;;;5008436;28;20385;-80
2022/04/15 05:05:00;;;;;;;5.25;3.90;;;14.90;99.90;;;;;;5007059;28;20754;-81
2022/04/15 05:07:26;;;;;;;3.92;3.60;;;15.00;99.90;;;;;;5008899;28;20498;-80
2022/04/15 05:09:52;;;;;;;4.23;3.60;;;14.90;99.90;;;;;;4986917;28;20906;-80
2022/04/15 05:12:17;;;;;;;4.17;3.77;;;14.90;99.90;;;;;;4994893;28;20473;-81
2022/04/15 05:14:43;;;;;;;4.23;3.80;;;14.80;99.90;;;;;;4993503;28;20429;-80
2022/04/15 05:17:09;;;;;;;4.83;4.10;;;14.80;99.90;;;;;;5008456;28;20459;-80
2022/04/15 05:19:35;;;;;;;4.53;3.80;;;14.80;99.90;;;;;;5005133;28;20413;-80
2022/04/15 05:22:01;;;;;;;4.87;4.37;;;14.90;99.90;;;;;;4994382;28;20402;-80
2022/04/15 05:24:27;;;;;;;5.07;4.30;;;15.00;99.90;;;;;;5011517;28;20388;-80
2022/04/15 05:26:52;;;;;;;4.72;4.22;;;15.00;99.90;;;;;;5004548;28;20475;-80
2022/04/15 05:29:18;;;;;;;4.90;4.50;;;15.00;99.90;;;;;;5013134;28;20396;-81
2022/04/15 05:31:43;;;;;;;4.60;4.20;;;15.10;99.90;;;;;;5002090;28;20407;-81
2022/04/15 05:34:09;;;;;;;5.27;4.10;;;15.00;99.90;;;;;;4999862;28;20414;-81
2022/04/15 05:36:35;;;;;;;4.67;4.13;;;15.00;99.90;;;;;;4998421;28;20393;-81
2022/04/15 05:39:01;;;;;;;6.75;4.53;;;15.00;99.90;;;;;;4995561;28;20399;-81
2022/04/15 05:41:27;;;;;;;5.80;4.40;;;14.90;99.90;;;;;;4995332;28;20765;-81
2022/04/15 05:43:53;;;;;;;5.13;4.30;;;14.90;99.90;;;;;;4997972;28;20411;-81
2022/04/15 05:46:19;;;;;;;5.35;4.63;;;15.00;99.90;;;;;;5004267;28;20383;-81
2022/04/15 05:48:45;;;;;;;5.25;4.75;;;15.10;99.90;;;;;;4993635;28;20749;-81
2022/04/15 05:51:11;;;;;;;5.82;4.65;;;15.10;99.90;;;;;;4994525;28;20398;-81
2022/04/15 05:53:37;;;;;;;6.57;4.82;;;15.20;99.90;;;;;;4992576;28;20926;-81
2022/04/15 05:56:03;;;;;;;5.00;4.47;;;15.20;99.90;;;;;;5000765;28;20389;-80
2022/04/15 05:58:29;;;;;;;5.60;4.57;;;15.10;99.90;;;;;;5012761;28;20385;-81
2022/04/15 06:00:55;;;;;;;5.57;4.70;;;15.10;99.90;;;;;;5012782;28;20385;-80
2022/04/15 06:03:22;;;;;;;5.97;4.80;;;15.20;99.90;;;;;;5012664;28;20393;-80
2022/04/15 06:05:48;;;;;;;5.63;4.97;;;15.20;99.90;;;;;;5009886;28;20391;-81
2022/04/15 06:08:15;;;;;;;5.88;4.47;;;15.30;99.90;;;;;;5012684;28;20391;-81
2022/04/15 06:10:41;;;;;;;5.30;4.80;;;15.30;99.90;;;;;;4994940;28;20501;-83
2022/04/15 06:13:10;;;;;;;5.60;5.00;;;15.20;99.90;;;;;;4994874;28;20858;-82
2022/04/15 06:15:41;;;;;;;5.45;4.68;;;15.30;99.90;;;;;;4994820;28;20859;-82
2022/04/15 06:18:07;;;;;;;5.43;4.82;;;15.30;99.90;;;;;;5012738;28;20393;-82
2022/04/15 06:20:32;;;;;;;5.70;5.10;;;15.20;99.90;;;;;;4992759;28;20397;-82
2022/04/15 06:22:58;;;;;;;5.53;4.90;;;15.20;99.90;;;;;;5000449;28;20402;-83
2022/04/15 06:25:24;;;;;;;7.00;4.93;;;15.00;99.90;;;;;;4999326;28;20402;-82
2022/04/15 06:27:50;;;;;;;6.25;4.95;;;15.00;99.90;;;;;;4997037;28;20398;-82
2022/04/15 06:30:19;;;;;;;5.30;4.73;;;15.10;99.90;;;;;;4997440;28;20576;-82
2022/04/15 06:32:44;;;;;;;5.88;4.40;;;15.30;99.90;;;;;;4999485;28;20394;-82
2022/04/15 06:35:10;;;;;;;4.75;4.35;;;15.40;99.90;;;;;;5000381;28;20413;-82
2022/04/15 06:37:35;;;;;;;4.90;4.40;;;15.30;99.90;;;;;;5000520;28;20436;-82
2022/04/15 06:40:01;;;;;;;4.70;3.80;;;15.40;99.90;;;;;;5000419;28;20387;-82
2022/04/15 06:42:28;;;;;;;4.50;4.10;;;15.50;99.90;;;;;;4997787;28;20456;-82
2022/04/15 06:44:54;;;;;;;4.30;3.90;;;15.50;99.90;;;;;;4999405;28;20407;-82
2022/04/15 06:47:20;;;;;;;5.18;4.60;;;15.50;99.90;;;;;;5005557;28;20403;-82
2022/04/15 06:49:46;;;;;;;4.30;3.90;;;15.50;99.90;;;;;;5018767;28;20841;-81
2022/04/15 06:52:13;;;;;;;4.72;4.22;;;15.50;99.90;;;;;;5018528;28;20420;-82
2022/04/15 06:54:39;;;;;;;5.43;4.95;;;15.50;99.90;;;;;;5018557;28;20490;-82
2022/04/15 06:57:05;;;;;;;4.97;4.47;;;15.50;99.90;;;;;;5000952;28;20873;-81
2022/04/15 06:59:30;;;;;;;5.80;4.50;;;15.50;99.90;;;;;;5007540;28;20426;-83
2022/04/15 07:01:57;;;;;;;5.10;4.60;;;15.70;99.90;;;;;;5000845;28;20491;-80
2022/04/15 07:04:23;;;;;;;5.57;4.97;;;15.80;99.90;;;;;;5011932;28;20468;-81
2022/04/15 07:06:48;;;;;;;5.93;5.30;;;15.60;99.90;;;;;;4998562;28;20833;-81
2022/04/15 07:09:14;;;;;;;6.67;5.30;;;15.50;99.90;;;;;;4996122;28;20488;-81
2022/04/15 07:11:40;;;;;;;5.90;5.27;;;15.30;99.90;;;;;;4997402;28;20469;-81
2022/04/15 07:14:05;;;;;;;6.13;4.80;;;15.50;99.90;;;;;;4996563;28;20416;-81
2022/04/15 07:16:36;;;;;;;6.13;4.95;;;15.50;99.90;;;;;;4999736;28;20394;-80
2022/04/15 07:19:07;;;;;;;5.43;4.77;;;15.40;99.90;;;;;;5006468;28;21817;-82
2022/04/15 07:21:36;;;;;;;5.38;4.30;;;15.40;99.90;;;;;;5007014;28;20388;-81
2022/04/15 07:24:03;;;;;;;4.20;3.90;;;15.50;99.90;;;;;;5018309;28;20897;-81
2022/04/15 07:26:29;;;;;;;4.47;3.73;;;15.60;99.90;;;;;;5006110;28;20483;-81
2022/04/15 07:28:55;;;;;;;3.80;3.50;;;15.60;99.90;;;;;;5004124;28;20823;-81
2022/04/15 07:31:20;;;;;;;5.03;3.70;;;15.70;99.90;;;;;;5012441;28;20395;-81
2022/04/15 07:33:49;;;;;;;4.57;3.88;;;15.70;99.90;;;;;;5005401;28;20409;-81
2022/04/15 07:39:08;;;;;;;5.85;3.75;;;15.90;99.90;;;;;;5007180;28;20404;-81
2022/04/15 07:41:36;;;;;;;3.72;3.22;;;15.70;99.90;;;;;;5015251;28;20377;-81
2022/04/15 07:44:06;;;;;;;3.95;3.10;;;15.80;99.90;;;;;;5015023;28;20753;-81
2022/04/15 07:46:33;;;;;;;5.13;3.30;;;15.60;99.90;;;;;;5015534;28;20817;-80
2022/04/15 07:48:59;;;;;;;3.78;3.28;;;15.50;99.90;;;;;;5015994;28;20399;-80
2022/04/15 07:51:24;;;;;;;5.38;3.30;;;15.50;99.90;;;;;;5015575;28;20388;-80
2022/04/15 07:53:50;;;;;;;4.78;3.20;;;15.60;99.90;;;;;;5014990;28;20417;-80
2022/04/15 07:56:16;;;;;;;4.63;3.28;;;15.70;99.90;;;;;;5015153;28;20381;-80
2022/04/15 07:58:42;;;;;;;5.82;3.10;;;15.60;99.90;;;;;;5009991;28;20391;-81
2022/04/15 08:01:09;;;;;;;4.38;3.13;;;15.70;99.90;;;;;;5003277;28;20393;-81
2022/04/15 08:03:34;;;;;;;3.58;2.83;;;15.90;99.90;;;;;;5004062;28;20394;-81
2022/04/15 08:06:00;;;;;;;4.15;3.03;;;16.00;99.90;;;;;;5014918;28;20400;-80
2022/04/15 08:08:26;;;;;;;4.88;3.08;;;16.00;99.90;;;;;;5014777;28;20753;-80
2022/04/15 08:10:51;;;;;;;5.07;3.15;;;15.90;99.90;;;;;;5014599;28;20404;-82
2022/04/15 08:13:18;;;;;;;3.40;2.80;;;16.00;99.90;;;;;;5014503;28;20407;-81
2022/04/15 08:15:43;;;;;;;5.28;3.22;;;15.90;99.90;;;;;;5014662;28;20381;-88
2022/04/15 08:18:09;;;;;;;3.30;3.00;;;15.80;99.90;;;;;;4997032;28;20762;-82
2022/04/15 08:20:35;;;;;;;4.23;2.90;;;16.10;99.90;;;;;;5007142;28;20861;-82
2022/04/15 08:23:00;;;;;;;3.87;2.83;;;16.10;99.90;;;;;;5004841;28;20763;-82
2022/04/15 08:25:26;;;;;;;3.63;3.20;;;16.10;99.90;;;;;;4995474;28;20406;-83
2022/04/15 08:27:52;;;;;;;3.35;2.85;;;16.30;99.90;;;;;;4995066;28;20405;-83
2022/04/15 08:30:17;;;;;;;3.90;3.08;;;16.40;99.90;;;;;;5003038;28;20390;-85
2022/04/15 08:32:49;;;;;;;4.38;3.13;;;16.50;99.90;;;;;;4995487;28;20878;-85
2022/04/15 08:35:15;;;;;;;3.38;3.08;;;16.50;99.90;;;;;;5013534;28;20409;-85
2022/04/15 08:37:41;;;;;;;3.95;3.42;;;16.50;99.90;;;;;;5013899;28;20381;-85
2022/04/15 08:40:08;;;;;;;5.30;3.47;;;16.50;99.90;;;;;;5014478;28;20455;-85
2022/04/15 08:42:34;;;;;;;3.90;3.33;;;16.60;99.90;;;;;;5014640;28;20381;-85
2022/04/15 08:45:02;;;;;;;4.10;3.70;;;16.80;99.90;;;;;;5014234;28;20447;-85
2022/04/15 08:47:29;;;;;;;4.18;3.70;;;16.70;99.90;;;;;;5014833;28;20438;-85
2022/04/15 08:49:55;;;;;;;4.45;3.78;;;16.60;99.90;;;;;;5014312;28;20462;-86
2022/04/15 08:52:24;;;;;;;4.80;4.30;;;16.60;99.90;;;;;;5014080;28;20949;-86
2022/04/15 08:54:50;;;;;;;4.57;3.13;;;16.50;99.90;;;;;;5014000;28;20412;-86
2022/04/15 08:57:15;;;;;;;4.70;3.10;;;16.60;99.90;;;;;;4996306;28;20400;-85
2022/04/15 08:59:41;;;;;;;4.30;3.30;;;16.70;99.90;;;;;;5013844;28;20449;-86
2022/04/15 09:02:09;;;;;;;5.82;4.05;;;16.80;99.90;;;;;;5013701;28;20750;-86
2022/04/15 09:04:35;;;;;;;5.60;4.40;;;17.00;99.90;;;;;;5013575;28;20389;-86
2022/04/15 09:07:02;;;;;;;6.47;4.50;;;17.20;99.90;;;;;;5013786;28;20460;-85
2022/04/15 09:09:32;;;;;;;6.35;4.47;;;17.30;99.90;;;;;;5014457;28;20393;-86
2022/04/15 09:11:59;;;;;;;4.10;2.77;;;17.50;99.90;;;;;;5013504;28;20393;-86
2022/04/15 09:14:26;;;;;;;5.78;4.32;;;17.60;99.90;;;;;;4992050;28;20795;-86
2022/04/15 09:16:52;;;;;;;5.77;4.23;;;17.60;99.90;;;;;;5005411;28;20396;-86
2022/04/15 09:19:19;;;;;;;3.90;3.40;;;17.90;99.90;;;;;;5013372;28;20377;-86
2022/04/15 09:21:52;;;;;;;5.35;3.30;;;17.90;99.90;;;;;;5009457;28;20381;-86
2022/04/15 09:24:26;;;;;;;3.60;3.25;;;18.10;99.90;;;;;;5010382;28;20416;-86
2022/04/15 09:26:53;;;;;;;4.50;3.60;;;18.00;99.90;;;;;;5004679;28;20415;-86
2022/04/15 09:29:21;;;;;;;5.03;3.05;;;18.10;99.90;;;;;;5013214;28;20389;-87
2022/04/15 09:31:47;;;;;;;3.83;3.53;;;18.10;99.90;;;;;;5013402;28;20746;-86
2022/04/15 09:34:12;;;;;;;5.90;3.63;;;18.20;99.90;;;;;;4994301;28;20399;-86
2022/04/15 09:36:39;;;;;;;3.27;2.97;;;18.20;99.90;;;;;;5013098;28;20727;-86
2022/04/15 09:39:11;;;;;;;4.03;3.47;;;18.40;99.90;;;;;;4995490;28;20976;-86
2022/04/15 09:41:38;;;;;;;4.50;3.15;;;18.50;99.90;;;;;;5012904;28;20890;-87
2022/04/15 09:44:04;;;;;;;3.92;3.08;;;18.50;99.90;;;;;;5012880;28;20401;-86
2022/04/15 09:46:31;;;;;;;4.68;2.88;;;18.50;99.90;;;;;;5012970;28;20392;-86
2022/04/15 09:49:07;;;;;;;3.65;2.75;;;18.50;99.90;;;;;;5013066;28;20404;-86
2022/04/15 09:51:56;;;;;;;3.53;2.53;;;18.40;99.90;;;;;;5013050;28;20399;-85
2022/04/15 09:54:27;;;;;;;3.20;2.70;;;18.30;99.90;;;;;;5012760;28;20815;-85
2022/04/15 09:56:57;;;;;;;3.42;2.80;;;18.20;99.90;;;;;;5012063;28;20455;-86
2022/04/15 09:59:25;;;;;;;3.10;2.35;;;18.30;99.90;;;;;;5013051;28;20483;-85
2022/04/15 10:01:54;;;;;;;3.40;2.03;;;18.40;99.90;;;;;;5012837;28;20391;-86
2022/04/15 10:04:21;;;;;;;3.47;1.85;;;18.60;99.90;;;;;;5008863;28;20424;-86
2022/04/15 10:06:47;;;;;;;3.90;1.90;;;18.80;99.90;;;;;;5012979;28;20451;-86
2022/04/15 10:09:13;;;;;;;1.75;1.42;;;18.80;99.90;;;;;;5012711;28;20387;-85
2022/04/15 10:11:42;;;;;;;2.05;1.58;;;18.90;99.90;;;;;;4995142;28;20392;-86
2022/04/15 10:14:09;;;;;;;2.75;1.85;;;18.90;99.90;;;;;;5012545;28;20491;-86
2022/04/15 10:16:37;;;;;;;3.97;2.03;;;19.00;99.90;;;;;;4995133;28;20415;-86
2022/04/15 10:19:03;;;;;;;3.22;2.10;;;19.10;99.90;;;;;;5012548;28;20388;-85
2022/04/15 10:21:33;;;;;;;2.08;1.90;;;19.10;99.90;;;;;;5012468;28;20381;-86
2022/04/15 10:24:03;;;;;;;2.13;1.80;;;19.10;99.90;;;;;;5012477;28;20439;-86
2022/04/15 10:26:34;;;;;;;3.10;2.10;;;19.20;99.90;;;;;;4994737;28;20395;-86
2022/04/15 10:29:03;;;;;;;2.53;2.30;;;19.20;99.90;;;;;;5012583;28;20475;-85
2022/04/15 10:31:43;;;;;;;2.83;1.90;;;19.10;99.90;;;;;;5012872;28;20391;-86
2022/04/15 10:34:10;;;;;;;2.47;2.28;;;19.20;99.90;;;;;;5012457;28;20758;-86
2022/04/15 10:36:36;;;;;;;3.50;2.60;;;19.30;99.90;;;;;;4994987;28;20428;-86
2022/04/15 10:39:07;;;;;;;2.97;2.50;;;19.50;99.90;;;;;;4994841;28;20416;-85
2022/04/15 10:41:42;;;;;;;4.10;3.70;;;19.60;99.90;;;;;;5012401;28;20381;-86
2022/04/15 10:44:11;;;;;;;3.20;2.90;;;19.70;99.90;;;;;;5012183;28;20404;-86
2022/04/15 10:46:37;;;;;;;2.92;2.70;;;19.50;99.90;;;;;;5012498;28;20468;-86
2022/04/15 10:49:27;;;;;;;3.60;2.75;;;19.70;99.90;;;;;;5012504;28;20388;-85
2022/04/15 10:52:02;;;;;;;3.78;2.92;;;19.80;99.90;;;;;;5012227;28;20393;-86
2022/04/15 10:54:31;;;;;;;3.67;3.00;;;19.70;99.90;;;;;;5012422;28;20423;-85
2022/04/15 10:56:59;;;;;;;3.47;3.03;;;19.90;99.90;;;;;;5012446;28;20389;-86
2022/04/15 11:02:21;;;;;;;3.67;3.35;;;20.20;99.90;;;;;;5012431;28;20443;-85
2022/04/15 11:04:52;;;;;;;3.53;3.22;;;20.20;99.90;;;;;;5012567;28;20873;-86
2022/04/15 11:07:29;;;;;;;4.80;2.70;;;20.20;99.90;;;;;;5013269;28;20392;-85
2022/04/15 11:09:56;;;;;;;3.72;3.10;;;20.40;99.90;;;;;;5015896;28;20393;-86
2022/04/15 11:12:33;;;;;;;3.55;3.05;;;20.50;99.90;;;;;;5015677;28;20480;-85
2022/04/15 11:14:59;;;;;;;3.00;2.80;;;20.70;99.90;;;;;;5015643;28;20412;-86
2022/04/15 11:17:39;;;;;;;3.17;2.77;;;20.90;99.90;;;;;;5015734;28;20385;-85
2022/04/15 11:20:08;;;;;;;3.38;2.58;;;20.90;99.90;;;;;;5005419;28;20443;-87
2022/04/15 11:22:41;;;;;;;2.80;2.60;;;20.70;99.90;;;;;;5015576;28;20424;-87
2022/04/15 11:25:11;;;;;;;3.00;2.70;;;20.80;99.90;;;;;;5011351;28;20401;-87
2022/04/15 11:27:39;;;;;;;3.03;2.70;;;21.10;99.90;;;;;;5003978;28;20424;-88
2022/04/15 11:30:14;;;;;;;2.60;2.40;;;21.30;99.90;;;;;;5015562;28;20870;-87
2022/04/15 11:32:54;;;;;;;2.53;2.33;;;21.50;99.90;;;;;;5015530;28;20886;-87
2022/04/15 11:35:27;;;;;;;2.50;2.17;;;21.70;99.90;;;;;;5015667;28;20743;-87
2022/04/15 11:38:01;;;;;;;3.40;3.10;;;21.60;99.90;;;;;;4999080;28;20900;-87
2022/04/15 11:40:30;;;;;;;3.40;3.00;;;21.40;99.90;;;;;;4997818;28;20393;-87
2022/04/15 11:42:59;;;;;;;3.00;2.80;;;21.40;99.90;;;;;;5015137;28;20425;-87
2022/04/15 11:45:36;;;;;;;3.72;2.80;;;21.40;99.90;;;;;;5016111;28;20428;-87
2022/04/15 11:48:18;;;;;;;2.67;2.45;;;21.50;99.90;;;;;;5015902;28;20396;-87
2022/04/15 11:50:45;;;;;;;3.28;3.00;;;21.60;99.90;;;;;;4998196;28;20397;-88
2022/04/15 11:53:11;;;;;;;3.17;2.97;;;21.90;99.90;;;;;;5015554;28;20483;-87
2022/04/15 11:55:58;;;;;;;4.10;2.30;;;21.70;99.90;;;;;;5015194;28;20492;-87
2022/04/15 11:58:25;;;;;;;2.85;2.30;;;21.50;99.90;;;;;;5015019;28;20392;-87
2022/04/15 12:01:00;;;;;;;2.70;2.03;;;21.70;99.90;;;;;;5015197;28;20385;-87
2022/04/15 12:03:28;;;;;;;3.60;2.72;;;21.60;99.90;;;;;;5006753;28;20383;-87
2022/04/15 12:05:57;;;;;;;3.35;2.90;;;20.60;99.90;;;;;;5014537;28;20389;-87
2022/04/15 12:08:23;;;;;;;2.80;2.55;;;21.00;99.90;;;;;;4998134;28;20488;-87
2022/04/15 12:10:49;;;;;;;2.60;2.25;;;21.20;99.90;;;;;;5016727;28;20471;-87
2022/04/15 12:13:17;;;;;;;2.92;2.20;;;21.20;99.90;;;;;;4999482;28;20427;-86
2022/04/15 12:15:44;;;;;;;2.22;1.88;;;20.60;99.90;;;;;;5014851;28;20476;-86
2022/04/15 12:18:10;;;;;;;2.85;2.50;;;20.90;99.90;;;;;;5015210;28;20428;-87
2022/04/15 12:20:38;;;;;;;2.42;2.22;;;21.30;99.90;;;;;;5015494;28;20392;-86
2022/04/15 12:23:05;;;;;;;2.92;2.40;;;21.60;99.90;;;;;;5015175;28;20385;-86
2022/04/15 12:30:59;;;;;;;5.28;2.85;;;21.10;99.90;;;;;;5013080;28;20389;-87
2022/04/15 12:33:25;;;;;;;2.55;1.98;;;21.20;99.90;;;;;;5002866;28;20389;-87
2022/04/15 12:36:17;;;;;;;2.47;2.15;;;21.50;99.90;;;;;;5008834;28;20414;-87
2022/04/15 12:39:05;;;;;;;3.80;2.38;;;21.60;99.90;;;;;;5002309;28;20393;-87
2022/04/15 12:41:42;;;;;;;2.72;2.30;;;21.80;99.90;;;;;;5012875;28;20460;-86
2022/04/15 12:44:15;;;;;;;3.58;2.70;;;21.60;99.90;;;;;;5005215;28;20927;-87
2022/04/15 12:46:44;;;;;;;2.60;2.40;;;21.00;99.90;;;;;;5014531;28;20389;-85
2022/04/15 12:49:27;;;;;;;2.83;2.63;;;21.10;99.90;;;;;;5014668;28;20862;-86
2022/04/15 12:51:58;;;;;;;3.70;2.15;;;21.10;99.90;;;;;;5014660;28;20870;-87
2022/04/15 12:54:25;;;;;;;2.97;2.67;;;21.00;99.90;;;;;;5010123;28;20882;-87
2022/04/15 12:56:56;;;;;;;3.47;2.30;;;20.90;99.90;;;;;;5014195;28;20395;-87
2022/04/15 12:59:22;;;;;;;2.38;1.85;;;21.10;99.90;;;;;;5014153;28;20389;-87
2022/04/15 13:01:49;;;;;;;2.15;1.95;;;21.40;99.90;;;;;;5014410;28;20402;-87